Kirovohrad, Ukraine
Current Conditions -  °F | °C
As of 12:30 PM on Thursday 18 Dec 2014 (Local Time) from UKDR Reporting Station
Overcast Overcast  
Wind Chill: 31°   Ceiling: 700
Heat Index: 37°   Visibility: 6mi
Dew Point: 36°   Wind: 9mph
Humidity: 93%   Direction: 20°NNE
Pressure: 29.94"   Gusts: NA
Location:  48.5°N, 32.26°E
Report Text: UKDR 180930Z 02004MPS 9999 OVC007 03/02 Q1014 3619//60 NOSIG
Loading
Personal Weather Stations






























Interactive Weather Map New forecast layout! Learn more

10-Day Weather Forecast

Advertisements
Track Severe Weather on mobile